Terminal Aerodrome Forecast
Issued by NWS

Home | Current Version | Previous Version | Text Only | Print | Product List | Glossary On
Versions: 1 2 3 4 5 6 7 8 9 10 11 12 13 14 15 16 17 18 19 20 21 22 23 24 25 26 27
000
FTUS42 KTAE 170500
TAFABY
TAF
KABY 170526Z 1706/1806 24004KT P6SM SCT100 BKN250
     FM171000 00000KT 4SM BR SCT250
     FM171400 36005KT P6SM SCT250
     FM180300 00000KT P6SM SKC=

USA.gov is the U.S. government's official web portal to all federal, state and local government web resources and services.